createdAt,value
2023-05-19T00:00:10.645Z,0.0
2023-05-19T00:05:11.549Z,0.0
2023-05-19T00:10:12.472Z,0.0
2023-05-19T00:15:13.374Z,0.0
2023-05-19T00:20:14.284Z,0.0
2023-05-19T00:25:15.184Z,0.0
2023-05-19T00:30:16.091Z,0.0
2023-05-19T00:35:16.997Z,0.0
2023-05-19T00:40:17.911Z,0.0
2023-05-19T00:45:18.907Z,0.0
2023-05-19T00:50:19.823Z,0.0
2023-05-19T00:55:20.698Z,0.0
2023-05-19T01:00:21.612Z,0.0
2023-05-19T01:05:22.550Z,0.0
2023-05-19T01:10:23.482Z,0.0
2023-05-19T01:15:24.387Z,0.0
2023-05-19T01:20:25.294Z,0.0
2023-05-19T01:25:26.195Z,0.0
2023-05-19T01:30:27.304Z,0.0
2023-05-19T01:35:28.339Z,0.0
2023-05-19T01:40:29.354Z,0.0
2023-05-19T01:45:30.351Z,0.0
2023-05-19T01:50:31.497Z,0.0
2023-05-19T01:55:32.730Z,0.0
2023-05-19T02:00:33.912Z,0.0
2023-05-19T02:05:35.072Z,0.0
2023-05-19T02:10:36.038Z,0.0
2023-05-19T02:15:36.937Z,0.0
2023-05-19T02:20:37.867Z,0.0
2023-05-19T02:25:38.754Z,0.4148
2023-05-19T02:30:39.658Z,0.4148
2023-05-19T02:35:40.522Z,0.0
2023-05-19T02:40:41.425Z,0.47405
2023-05-19T02:45:42.324Z,0.5333
2023-05-19T02:50:43.329Z,0.47405
2023-05-19T02:55:44.288Z,1.53075
2023-05-19T03:00:45.213Z,2.87705
2023-05-19T03:05:46.109Z,5.3852
2023-05-19T03:10:46.976Z,6.91595
2023-05-19T03:15:47.869Z,6.67635
2023-05-19T03:20:48.825Z,9.9223
2023-05-19T03:25:49.707Z,12.0885
2023-05-19T03:30:50.584Z,16.592
2023-05-19T03:35:51.504Z,22.6955
2023-05-19T03:40:52.656Z,28.97675
2023-05-19T03:45:53.614Z,36.2654
2023-05-19T03:50:54.632Z,43.6133
2023-05-19T03:55:55.543Z,50.96125
2023-05-19T04:00:56.468Z,56.17585
2023-05-19T04:05:57.342Z,61.2127
2023-05-19T04:10:58.238Z,65.36075
2023-05-19T04:15:59.165Z,69.74575
2023-05-19T04:21:00.120Z,71.93835
2023-05-19T04:26:01.053Z,76.0864
2023-05-19T04:31:02.159Z,81.95285
2023-05-19T04:36:03.066Z,86.21935
2023-05-19T04:41:03.951Z,90.1304
2023-05-19T04:46:04.813Z,94.93025
2023-05-19T04:51:05.669Z,103.404
2023-05-19T04:56:06.565Z,109.44825
2023-05-19T05:01:07.423Z,112.58885
2023-05-19T05:06:08.371Z,121.35885
2023-05-19T05:11:09.276Z,124.49955
2023-05-19T05:16:10.298Z,135.16575
2023-05-19T05:21:11.271Z,130.8402
2023-05-19T05:26:12.179Z,144.575
2023-05-19T05:31:13.066Z,199.63795
2023-05-19T05:36:13.959Z,270.8913
2023-05-19T05:41:14.836Z,217.77005
2023-05-19T05:46:15.813Z,217.11795
2023-05-19T05:51:16.771Z,197.44495
2023-05-19T05:56:17.778Z,185.65295
2023-05-19T06:01:18.653Z,236.6725
2023-05-19T06:06:19.592Z,259.07155
2023-05-19T06:11:20.477Z,281.47055
2023-05-19T06:16:21.441Z,304.9357
2023-05-19T06:21:22.380Z,250.3608
2023-05-19T06:26:23.425Z,245.85755
2023-05-19T06:31:24.390Z,304.462
2023-05-19T06:36:25.358Z,230.92515
2023-05-19T06:41:26.247Z,278.33
2023-05-19T06:46:27.375Z,365.0234
2023-05-19T06:51:28.330Z,1100.03185
2023-05-19T06:56:29.269Z,309.49905
2023-05-19T07:01:30.218Z,330.12045
2023-05-19T07:06:31.133Z,404.87665
2023-05-19T07:11:32.054Z,303.81205
2023-05-19T07:16:33.000Z,298.24115
2023-05-19T07:21:34.037Z,358.56345
2023-05-19T07:26:34.921Z,398.3828
2023-05-19T07:31:35.849Z,542.2629
2023-05-19T07:36:36.754Z,446.26415
2023-05-19T07:41:37.695Z,406.3243
2023-05-19T07:46:38.678Z,402.17585
2023-05-19T07:51:39.667Z,373.67265
2023-05-19T07:56:40.556Z,394.8275
2023-05-19T08:01:41.472Z,430.79665
2023-05-19T08:06:42.387Z,473.34385
2023-05-19T08:11:43.274Z,475.1207
2023-05-19T08:16:44.144Z,492.0684
2023-05-19T08:21:45.050Z,537.10335
2023-05-19T08:26:45.938Z,369.5248
2023-05-19T08:31:46.915Z,387.06835
2023-05-19T08:36:47.863Z,369.52875
2023-05-19T08:41:48.794Z,487.7457
2023-05-19T08:46:49.772Z,978.45475
2023-05-19T08:51:50.778Z,672.6837
2023-05-19T08:56:51.803Z,668.7136
2023-05-19T09:01:52.721Z,676.5943
2023-05-19T09:06:53.626Z,311.48375
2023-05-19T09:11:54.538Z,592.8659
2023-05-19T09:16:55.472Z,459.12485
2023-05-19T09:21:56.421Z,712.97895
2023-05-19T09:26:58.524Z,721.09645
2023-05-19T09:32:01.261Z,393.5275
2023-05-19T09:37:02.433Z,610.46575
2023-05-19T09:42:03.407Z,543.8019
2023-05-19T09:47:04.366Z,514.64795
2023-05-19T09:52:05.282Z,377.82455
2023-05-19T09:57:08.381Z,580.719
2023-05-19T10:02:09.815Z,473.05025
2023-05-19T10:07:10.692Z,731.76415
2023-05-19T10:12:11.630Z,717.18865
2023-05-19T10:17:12.527Z,626.11075
2023-05-19T10:22:13.423Z,649.45845
2023-05-19T10:27:14.324Z,511.7451
2023-05-19T10:32:15.290Z,403.36395
2023-05-19T10:37:16.206Z,410.534
2023-05-19T10:42:17.545Z,512.57445
2023-05-19T10:47:18.566Z,556.6019
2023-05-19T10:52:19.518Z,513.3441
2023-05-19T10:57:20.375Z,469.9097
2023-05-19T11:02:21.415Z,591.97785
2023-05-19T11:07:22.476Z,529.2248
2023-05-19T11:12:24.749Z,516.54465
2023-05-19T11:17:25.995Z,467.30265
2023-05-19T11:22:26.958Z,402.0014
2023-05-19T11:27:32.977Z,380.31255
2023-05-19T11:32:33.958Z,362.00275
2023-05-19T11:37:34.881Z,314.00385
2023-05-19T11:42:35.950Z,354.8318
2023-05-19T11:47:50.828Z,439.45105
2023-05-19T11:53:01.206Z,655.7969
2023-05-19T11:58:03.874Z,674.1652
2023-05-19T12:03:05.633Z,300.3159
2023-05-19T12:08:06.859Z,208.94075
2023-05-19T12:13:07.758Z,220.8517
2023-05-19T12:18:08.718Z,265.11665
2023-05-19T12:23:09.669Z,357.91395
2023-05-19T12:28:10.578Z,576.333
2023-05-19T12:33:11.531Z,706.7558
2023-05-19T12:38:12.477Z,250.83625
2023-05-19T12:43:13.412Z,249.9471
2023-05-19T12:48:14.320Z,266.06515
2023-05-19T12:53:15.262Z,316.49325
2023-05-19T12:58:16.176Z,797.5392
2023-05-19T13:03:17.295Z,990.95675
2023-05-19T13:08:18.543Z,455.62875
2023-05-19T13:13:19.541Z,233.05895
2023-05-19T13:18:20.432Z,246.4509
2023-05-19T13:23:21.472Z,298.5977
2023-05-19T13:28:22.409Z,390.09095
2023-05-19T13:33:23.330Z,820.5946
2023-05-19T13:38:24.244Z,796.59495
2023-05-19T13:43:25.149Z,641.10465
2023-05-19T13:48:26.053Z,425.76385
2023-05-19T13:53:26.969Z,440.51895
2023-05-19T13:58:28.040Z,491.4203
2023-05-19T14:03:29.103Z,512.21975
2023-05-19T14:08:30.184Z,335.09995
2023-05-19T14:13:34.429Z,654.37795
2023-05-19T14:18:36.268Z,412.609
2023-05-19T14:23:37.167Z,288.6424
2023-05-19T14:28:38.195Z,731.1767
2023-05-19T14:33:39.121Z,715.1178
2023-05-19T14:38:39.995Z,366.40815
2023-05-19T14:43:40.895Z,462.6971
2023-05-19T14:48:41.871Z,794.52215
2023-05-19T14:53:42.788Z,734.84985
2023-05-19T14:58:43.815Z,351.21095
2023-05-19T15:03:44.755Z,387.7203
2023-05-19T15:08:45.654Z,622.43575
2023-05-19T15:13:46.554Z,609.75475
2023-05-19T15:18:47.453Z,624.86535
2023-05-19T15:23:48.389Z,561.69725
2023-05-19T15:28:49.563Z,162.31465
2023-05-19T15:33:50.442Z,174.57965
2023-05-19T15:38:51.309Z,175.04625
2023-05-19T15:43:52.270Z,168.82415
2023-05-19T15:48:53.155Z,153.35805
2023-05-19T15:53:54.049Z,190.3345
2023-05-19T15:58:54.961Z,195.1344
2023-05-19T16:03:55.988Z,406.56285
2023-05-19T16:08:56.939Z,170.1868
2023-05-19T16:13:57.858Z,169.03085
2023-05-19T16:18:58.750Z,211.44695
2023-05-19T16:23:59.659Z,401.2899
2023-05-19T16:29:00.549Z,426.29595
2023-05-19T16:34:01.522Z,462.2645
2023-05-19T16:39:02.495Z,267.5464
2023-05-19T16:44:03.420Z,216.763
2023-05-19T16:49:04.289Z,219.07415
2023-05-19T16:54:05.189Z,262.1539
2023-05-19T16:59:06.114Z,176.68275
2023-05-19T17:04:07.019Z,202.2451
2023-05-19T17:09:07.917Z,161.1798
2023-05-19T17:14:08.801Z,158.8093
2023-05-19T17:19:09.856Z,83.3158
2023-05-19T17:24:10.810Z,82.1306
2023-05-19T17:29:11.757Z,110.6925
2023-05-19T17:34:12.674Z,121.18095
2023-05-19T17:39:13.577Z,118.9885
2023-05-19T17:44:14.577Z,124.6771
2023-05-19T17:49:15.512Z,107.19625
2023-05-19T17:54:16.490Z,109.21095
2023-05-19T17:59:17.444Z,87.16735
2023-05-19T18:04:18.375Z,74.13075
2023-05-19T18:09:19.326Z,65.47915
2023-05-19T18:14:20.329Z,58.78305
2023-05-19T18:19:21.321Z,53.2721
2023-05-19T18:24:22.369Z,46.75375
2023-05-19T18:29:23.359Z,39.64295
2023-05-19T18:34:24.297Z,31.7025
2023-05-19T18:39:27.180Z,24.47315
2023-05-19T18:44:29.598Z,18.01415
2023-05-19T18:49:30.492Z,13.03655
2023-05-19T18:54:31.398Z,8.296
2023-05-19T18:59:32.297Z,5.33005
2023-05-19T19:04:33.228Z,3.4369
2023-05-19T19:09:34.191Z,2.66655
2023-05-19T19:14:35.364Z,1.42215
2023-05-19T19:19:36.447Z,0.8296
2023-05-19T19:24:37.623Z,0.4148
2023-05-19T19:29:38.529Z,0.47405
2023-05-19T19:34:39.456Z,0.0
2023-05-19T19:39:40.390Z,0.4148
2023-05-19T19:44:41.359Z,0.0
2023-05-19T19:49:42.481Z,0.0
2023-05-19T19:54:43.388Z,0.0
2023-05-19T19:59:44.317Z,0.0
2023-05-19T20:04:45.273Z,0.0
2023-05-19T20:09:46.193Z,0.0
2023-05-19T20:14:47.082Z,0.0
2023-05-19T20:19:47.980Z,0.0
2023-05-19T20:24:48.868Z,0.0
2023-05-19T20:29:49.795Z,0.0
2023-05-19T20:34:50.716Z,0.0
2023-05-19T20:39:51.676Z,0.0
2023-05-19T20:44:52.562Z,0.0
2023-05-19T20:49:53.500Z,0.0
2023-05-19T20:54:54.500Z,0.0
2023-05-19T20:59:55.398Z,0.0
2023-05-19T21:04:56.336Z,0.0
2023-05-19T21:09:57.297Z,0.0
2023-05-19T21:14:58.368Z,0.0
2023-05-19T21:19:59.266Z,0.0
2023-05-19T21:25:00.173Z,0.0
2023-05-19T21:30:01.095Z,0.0
2023-05-19T21:35:02.117Z,0.0
2023-05-19T21:40:03.000Z,0.0
2023-05-19T21:45:03.899Z,0.0
2023-05-19T21:50:04.796Z,0.0
2023-05-19T21:55:05.697Z,0.0
2023-05-19T22:00:06.566Z,0.0
2023-05-19T22:05:07.548Z,0.0
2023-05-19T22:10:08.474Z,0.0
2023-05-19T22:15:09.539Z,0.0
2023-05-19T22:20:10.431Z,0.0
2023-05-19T22:25:11.324Z,0.0
2023-05-19T22:30:12.235Z,0.0
2023-05-19T22:35:13.137Z,0.0
2023-05-19T22:40:14.035Z,0.0
2023-05-19T22:45:14.925Z,0.0
2023-05-19T22:50:15.829Z,0.0
2023-05-19T22:55:16.705Z,0.0
2023-05-19T23:00:17.606Z,0.0
2023-05-19T23:05:18.532Z,0.0
2023-05-19T23:10:19.469Z,0.0
2023-05-19T23:15:20.370Z,0.0
2023-05-19T23:20:21.267Z,0.0
2023-05-19T23:25:22.194Z,0.0
2023-05-19T23:30:23.095Z,0.0
2023-05-19T23:35:23.999Z,0.0
2023-05-19T23:40:24.921Z,0.0
2023-05-19T23:45:25.830Z,0.0
2023-05-19T23:50:26.746Z,0.0
2023-05-19T23:55:27.669Z,0.0
